Time;durP1;ratioP1;P1;durP2;ratioP2;P2;SDS_P1;SDS_P2;PMS_P1;PMS_P2;Temp;Humidity;BMP_temperature;BMP_pressure;BME280_temperature;BME280_humidity;BME280_pressure;Samples;Min_cycle;Max_cycle;Signal;HPM_P1;HPM_P2
2021/12/26 00:00:40;;;;;;;33.90;11.53;;;;;;;;;;5040069;28;20858;-49
2021/12/26 00:03:06;;;;;;;30.33;10.40;;;;;;;;;;5034969;28;20504;-49
2021/12/26 00:05:32;;;;;;;33.30;13.27;;;;;;;;;;5043229;28;20422;-49
2021/12/26 00:07:58;;;;;;;24.00;10.80;;;;;;;;;;5023085;28;20454;-48
2021/12/26 00:10:24;;;;;;;25.90;12.30;;;;;;;;;;5042642;28;20453;-50
2021/12/26 00:12:50;;;;;;;22.63;10.87;;;;;;;;;;5016178;28;20545;-48
2021/12/26 00:15:17;;;;;;;27.57;10.17;;;;;;;;;;5047582;28;20533;-50
2021/12/26 00:17:43;;;;;;;30.97;11.53;;;;;;;;;;5007250;28;20542;-50
2021/12/26 00:20:10;;;;;;;18.90;9.80;;;;;;;;;;5039457;28;20490;-48
2021/12/26 00:22:36;;;;;;;31.57;12.83;;;;;;;;;;5015065;28;20892;-49
2021/12/26 00:25:02;;;;;;;33.93;13.37;;;;;;;;;;5040764;28;20512;-49
2021/12/26 00:27:28;;;;;;;23.03;11.17;;;;;;;;;;5018783;28;20844;-49
2021/12/26 00:29:54;;;;;;;18.53;11.60;;;;;;;;;;5043867;28;20501;-47
2021/12/26 00:32:20;;;;;;;40.47;13.70;;;;;;;;;;5017424;28;20543;-48
2021/12/26 00:34:50;;;;;;;23.70;12.93;;;;;;;;;;5042515;28;20435;-47
2021/12/26 00:37:16;;;;;;;37.67;10.80;;;;;;;;;;5020407;28;20524;-49
2021/12/26 00:39:42;;;;;;;17.97;11.03;;;;;;;;;;5047516;28;20458;-48
2021/12/26 00:42:08;;;;;;;31.17;11.63;;;;;;;;;;5022475;28;21328;-48
2021/12/26 00:44:39;;;;;;;25.87;10.90;;;;;;;;;;5047784;28;20458;-48
2021/12/26 00:47:29;;;;;;;35.10;11.57;;;;;;;;;;5034575;28;20835;-49
2021/12/26 00:49:55;;;;;;;25.10;12.63;;;;;;;;;;5042081;28;20518;-49
2021/12/26 00:52:21;;;;;;;38.70;11.57;;;;;;;;;;5004516;28;20755;-48
2021/12/26 00:54:47;;;;;;;20.30;10.20;;;;;;;;;;5053865;28;20453;-49
2021/12/26 00:57:12;;;;;;;37.63;12.97;;;;;;;;;;5024055;28;20669;-49
2021/12/26 00:59:39;;;;;;;36.70;13.63;;;;;;;;;;5046088;28;20928;-50
2021/12/26 01:02:27;;;;;;;35.47;12.10;;;;;;;;;;5035171;28;20551;-50
2021/12/26 01:04:53;;;;;;;60.63;13.00;;;;;;;;;;5061195;28;20763;-50
2021/12/26 01:07:53;;;;;;;24.30;11.57;;;;;;;;;;5020553;28;21115;-48
2021/12/26 01:10:05;;;;;;;25.03;11.40;;;;;;;;;;5048292;28;20598;-49
2021/12/26 01:12:32;;;;;;;49.57;12.20;;;;;;;;;;5038230;28;20912;-49
2021/12/26 01:15:04;;;;;;;23.13;10.57;;;;;;;;;;5043357;28;20439;-49
2021/12/26 01:17:30;;;;;;;22.40;11.27;;;;;;;;;;5018235;28;20802;-49
2021/12/26 01:19:56;;;;;;;37.37;12.33;;;;;;;;;;5048273;28;20943;-48
2021/12/26 01:22:22;;;;;;;40.27;11.83;;;;;;;;;;5039127;28;20505;-49
2021/12/26 01:24:55;;;;;;;31.77;11.50;;;;;;;;;;5051399;28;20525;-50
2021/12/26 01:27:22;;;;;;;22.40;10.53;;;;;;;;;;5004871;28;21058;-48
2021/12/26 01:29:48;;;;;;;24.57;11.07;;;;;;;;;;5047598;28;20454;-49
2021/12/26 01:32:14;;;;;;;59.57;11.60;;;;;;;;;;5025417;28;20520;-48
2021/12/26 01:34:40;;;;;;;15.43;8.93;;;;;;;;;;5043716;28;20439;-48
2021/12/26 01:37:06;;;;;;;15.40;8.40;;;;;;;;;;5039105;28;20626;-48
2021/12/26 01:39:34;;;;;;;27.00;10.60;;;;;;;;;;5043847;28;21026;-49
2021/12/26 01:42:02;;;;;;;18.43;10.37;;;;;;;;;;5041811;28;22577;-47
2021/12/26 01:44:29;;;;;;;15.80;8.93;;;;;;;;;;5048900;28;20442;-47
2021/12/26 01:47:15;;;;;;;25.50;10.67;;;;;;;;;;5027184;28;20486;-49
2021/12/26 01:49:45;;;;;;;13.60;8.30;;;;;;;;;;5045341;28;20454;-48
2021/12/26 01:52:11;;;;;;;13.87;8.47;;;;;;;;;;5026660;28;20494;-50
2021/12/26 01:54:46;;;;;;;18.47;9.63;;;;;;;;;;5063617;28;20418;-47
2021/12/26 01:57:12;;;;;;;14.73;9.77;;;;;;;;;;5038015;28;21473;-50
2021/12/26 01:59:39;;;;;;;14.83;8.73;;;;;;;;;;5046842;28;20439;-49
2021/12/26 02:02:05;;;;;;;18.43;9.33;;;;;;;;;;5018465;28;20976;-49
2021/12/26 02:04:31;;;;;;;10.87;7.03;;;;;;;;;;5048809;28;20513;-49
2021/12/26 02:06:58;;;;;;;14.23;8.50;;;;;;;;;;5027307;28;20520;-49
2021/12/26 02:09:24;;;;;;;13.53;7.60;;;;;;;;;;5051967;28;20998;-48
2021/12/26 02:11:50;;;;;;;14.67;8.63;;;;;;;;;;5038923;28;20599;-48
2021/12/26 02:14:16;;;;;;;9.80;6.57;;;;;;;;;;5039429;28;20534;-50
2021/12/26 02:16:42;;;;;;;11.80;7.27;;;;;;;;;;5038037;28;20528;-48
2021/12/26 02:19:08;;;;;;;13.20;7.50;;;;;;;;;;5045365;28;20463;-53
2021/12/26 02:24:29;;;;;;;10.70;8.20;;;;;;;;;;5047483;28;20788;-50
2021/12/26 02:29:41;;;;;;;12.50;6.83;;;;;;;;;;5043703;28;20463;-48
2021/12/26 02:32:07;;;;;;;12.23;8.40;;;;;;;;;;5041170;28;20439;-49
2021/12/26 02:34:34;;;;;;;11.80;6.57;;;;;;;;;;5045652;28;20444;-48
2021/12/26 02:37:00;;;;;;;9.67;7.20;;;;;;;;;;5006454;28;20449;-47
2021/12/26 02:39:26;;;;;;;10.20;7.13;;;;;;;;;;5016298;28;20510;-49
2021/12/26 02:41:52;;;;;;;12.67;7.87;;;;;;;;;;5049419;28;20497;-49
2021/12/26 02:44:18;;;;;;;19.63;8.33;;;;;;;;;;5034710;28;20651;-49
2021/12/26 02:46:44;;;;;;;12.70;8.17;;;;;;;;;;5067497;28;21065;-50
2021/12/26 02:49:10;;;;;;;12.40;8.63;;;;;;;;;;5028123;28;20549;-49
2021/12/26 02:51:37;;;;;;;13.63;8.70;;;;;;;;;;5052704;28;20458;-49
2021/12/26 02:54:03;;;;;;;12.60;7.43;;;;;;;;;;5022000;28;20434;-49
2021/12/26 02:56:30;;;;;;;13.37;8.07;;;;;;;;;;5051908;28;20181;-49
2021/12/26 02:58:56;;;;;;;12.17;8.97;;;;;;;;;;5024092;28;20430;-50
2021/12/26 03:01:23;;;;;;;14.63;8.70;;;;;;;;;;5046689;28;20484;-49
2021/12/26 03:03:51;;;;;;;14.00;7.73;;;;;;;;;;5043480;28;20434;-51
2021/12/26 03:06:34;;;;;;;13.50;8.73;;;;;;;;;;5047598;28;20466;-50
2021/12/26 03:09:00;;;;;;;17.50;9.60;;;;;;;;;;5011810;28;20508;-48
2021/12/26 03:11:26;;;;;;;12.80;8.47;;;;;;;;;;5047769;28;20576;-49
2021/12/26 03:13:53;;;;;;;15.10;9.80;;;;;;;;;;5041104;28;20952;-49
2021/12/26 03:16:19;;;;;;;12.90;8.33;;;;;;;;;;5048448;28;20418;-49
2021/12/26 03:18:45;;;;;;;15.33;8.50;;;;;;;;;;5022775;28;20963;-48
2021/12/26 03:21:11;;;;;;;13.83;8.37;;;;;;;;;;5046508;28;20477;-47
2021/12/26 03:23:37;;;;;;;12.17;8.10;;;;;;;;;;5020341;28;21814;-52
2021/12/26 03:26:05;;;;;;;12.40;7.70;;;;;;;;;;5042398;28;20465;-49
2021/12/26 03:28:31;;;;;;;15.77;8.20;;;;;;;;;;5028812;28;20835;-48
2021/12/26 03:30:57;;;;;;;24.43;9.80;;;;;;;;;;5040950;28;20477;-49
2021/12/26 03:33:23;;;;;;;15.13;8.17;;;;;;;;;;5043193;28;20431;-48
2021/12/26 03:35:49;;;;;;;16.33;9.90;;;;;;;;;;5040486;28;20919;-47
2021/12/26 03:38:57;;;;;;;16.07;9.00;;;;;;;;;;5041013;28;20430;-51
2021/12/26 03:41:32;;;;;;;14.37;9.07;;;;;;;;;;5026194;28;20667;-50
2021/12/26 03:43:58;;;;;;;15.70;9.30;;;;;;;;;;5034835;28;20432;-50
2021/12/26 03:46:24;;;;;;;17.13;8.37;;;;;;;;;;5038344;28;20430;-49
2021/12/26 03:48:50;;;;;;;16.77;10.80;;;;;;;;;;5043239;28;20948;-49
2021/12/26 03:51:18;;;;;;;16.83;9.30;;;;;;;;;;5019310;28;20862;-48
2021/12/26 03:53:44;;;;;;;17.73;8.60;;;;;;;;;;5036801;28;20486;-49
2021/12/26 03:56:10;;;;;;;14.33;8.37;;;;;;;;;;5021852;28;20438;-48
2021/12/26 03:58:38;;;;;;;12.97;9.50;;;;;;;;;;5040647;28;20868;-49
2021/12/26 04:01:04;;;;;;;25.67;9.47;;;;;;;;;;5036412;28;20502;-49
2021/12/26 04:03:34;;;;;;;20.17;10.03;;;;;;;;;;5036579;28;20660;-50
2021/12/26 04:06:00;;;;;;;27.13;9.60;;;;;;;;;;5042288;28;20792;-48
2021/12/26 04:08:26;;;;;;;20.80;9.33;;;;;;;;;;5036342;28;20440;-48
2021/12/26 04:10:52;;;;;;;14.53;8.87;;;;;;;;;;4977819;28;20848;-48
2021/12/26 04:13:18;;;;;;;15.30;8.40;;;;;;;;;;5039293;28;20519;-49
2021/12/26 04:15:44;;;;;;;18.00;10.10;;;;;;;;;;5034122;28;20450;-49
2021/12/26 04:18:10;;;;;;;19.60;9.93;;;;;;;;;;5038969;28;20430;-48
2021/12/26 04:20:36;;;;;;;22.47;9.90;;;;;;;;;;5023571;28;21019;-48
2021/12/26 04:23:02;;;;;;;32.23;10.37;;;;;;;;;;5031817;28;21033;-48
2021/12/26 04:25:28;;;;;;;15.13;9.03;;;;;;;;;;5028451;28;21168;-48
2021/12/26 04:27:54;;;;;;;19.60;10.17;;;;;;;;;;5025654;28;20446;-48
2021/12/26 04:30:21;;;;;;;19.27;10.23;;;;;;;;;;5038020;28;20439;-50
2021/12/26 04:32:48;;;;;;;20.10;9.50;;;;;;;;;;5050135;28;20454;-48
2021/12/26 04:35:14;;;;;;;36.27;9.67;;;;;;;;;;5038246;28;20415;-49
2021/12/26 04:37:40;;;;;;;24.60;10.43;;;;;;;;;;5039370;28;20442;-49
2021/12/26 04:40:16;;;;;;;31.07;10.10;;;;;;;;;;5038523;28;20447;-48
2021/12/26 04:42:45;;;;;;;26.90;10.87;;;;;;;;;;5014116;28;20503;-49
2021/12/26 04:45:12;;;;;;;23.13;10.60;;;;;;;;;;5041099;28;20442;-50
2021/12/26 04:47:38;;;;;;;18.70;10.03;;;;;;;;;;5023583;28;20431;-50
2021/12/26 04:50:05;;;;;;;25.70;11.00;;;;;;;;;;5034994;28;20645;-49
2021/12/26 04:52:31;;;;;;;29.10;10.87;;;;;;;;;;5039934;28;20446;-49
2021/12/26 04:55:00;;;;;;;20.53;9.83;;;;;;;;;;5035462;28;20497;-48
2021/12/26 04:57:26;;;;;;;19.63;9.97;;;;;;;;;;5043288;28;22144;-48
2021/12/26 04:59:52;;;;;;;30.93;11.93;;;;;;;;;;5014800;28;20430;-49
2021/12/26 05:02:19;;;;;;;18.70;8.90;;;;;;;;;;5037031;28;20489;-49
2021/12/26 05:04:45;;;;;;;31.97;9.77;;;;;;;;;;5033166;28;20435;-48
2021/12/26 05:07:14;;;;;;;19.37;10.00;;;;;;;;;;5041274;28;21158;-50
2021/12/26 05:09:41;;;;;;;16.60;9.97;;;;;;;;;;5035075;28;20454;-48
2021/12/26 05:12:08;;;;;;;18.73;9.20;;;;;;;;;;5034852;28;20864;-49
2021/12/26 05:14:44;;;;;;;18.10;10.20;;;;;;;;;;5026890;28;20483;-50
2021/12/26 05:17:11;;;;;;;16.10;9.50;;;;;;;;;;5030390;28;20432;-48
2021/12/26 05:19:37;;;;;;;25.10;12.30;;;;;;;;;;5019003;28;20456;-48
2021/12/26 05:22:03;;;;;;;21.63;10.07;;;;;;;;;;5039859;28;20483;-50
2021/12/26 05:24:30;;;;;;;18.00;11.20;;;;;;;;;;5037801;28;20344;-49
2021/12/26 05:26:56;;;;;;;19.70;9.37;;;;;;;;;;5043344;28;20454;-49
2021/12/26 05:29:22;;;;;;;18.83;10.77;;;;;;;;;;5018482;28;21001;-49
2021/12/26 05:31:48;;;;;;;24.60;9.77;;;;;;;;;;5035974;28;20435;-48
2021/12/26 05:34:14;;;;;;;21.37;10.57;;;;;;;;;;5010565;28;20735;-48
2021/12/26 05:36:41;;;;;;;22.90;11.43;;;;;;;;;;5048753;28;20442;-50
2021/12/26 05:39:07;;;;;;;22.83;10.20;;;;;;;;;;5020597;28;20453;-48
2021/12/26 05:41:33;;;;;;;19.53;9.93;;;;;;;;;;5040692;28;21176;-49
2021/12/26 05:43:59;;;;;;;21.83;10.40;;;;;;;;;;5039710;28;20442;-48
2021/12/26 05:46:25;;;;;;;19.40;11.33;;;;;;;;;;5043631;28;20477;-48
2021/12/26 05:49:17;;;;;;;25.70;10.23;;;;;;;;;;5035544;28;20442;-50
2021/12/26 05:51:45;;;;;;;17.73;9.47;;;;;;;;;;5009860;28;20500;-49
2021/12/26 05:54:11;;;;;;;27.63;10.03;;;;;;;;;;5044621;28;20450;-49
2021/12/26 05:56:37;;;;;;;20.53;9.47;;;;;;;;;;5032286;28;20435;-49
2021/12/26 05:59:03;;;;;;;20.73;9.93;;;;;;;;;;5036981;28;20439;-49
2021/12/26 06:01:34;;;;;;;20.30;10.17;;;;;;;;;;5019096;28;20855;-50
2021/12/26 06:04:00;;;;;;;17.87;9.30;;;;;;;;;;5041589;28;20981;-50
2021/12/26 06:06:26;;;;;;;17.63;10.13;;;;;;;;;;5020862;28;20459;-49
2021/12/26 06:08:52;;;;;;;21.13;10.40;;;;;;;;;;5038324;28;20505;-48
2021/12/26 06:11:18;;;;;;;15.90;9.33;;;;;;;;;;5038265;28;20545;-48
2021/12/26 06:13:44;;;;;;;20.97;11.80;;;;;;;;;;5040529;28;20973;-48
2021/12/26 06:16:10;;;;;;;19.97;9.30;;;;;;;;;;5033012;28;20959;-54
2021/12/26 06:18:37;;;;;;;21.10;11.03;;;;;;;;;;5044576;28;20219;-49
2021/12/26 06:21:03;;;;;;;21.50;10.47;;;;;;;;;;5003997;28;20718;-49
2021/12/26 06:23:29;;;;;;;25.60;11.77;;;;;;;;;;5045506;28;20585;-49
2021/12/26 06:25:55;;;;;;;20.50;11.47;;;;;;;;;;5039820;28;20442;-49
2021/12/26 06:28:21;;;;;;;25.00;10.70;;;;;;;;;;5043470;28;20676;-50
2021/12/26 06:30:48;;;;;;;31.33;10.93;;;;;;;;;;5041549;28;20437;-50
2021/12/26 06:33:14;;;;;;;26.30;11.17;;;;;;;;;;5034769;28;20585;-49
2021/12/26 06:35:40;;;;;;;28.70;10.40;;;;;;;;;;5038621;28;20521;-48
2021/12/26 06:38:06;;;;;;;25.67;11.73;;;;;;;;;;5042572;28;20473;-49
2021/12/26 06:40:32;;;;;;;26.30;10.97;;;;;;;;;;5018730;28;20458;-48
2021/12/26 06:42:58;;;;;;;24.60;12.43;;;;;;;;;;5040035;28;20478;-49
2021/12/26 06:45:24;;;;;;;22.00;11.40;;;;;;;;;;5043003;28;20451;-48
2021/12/26 06:47:52;;;;;;;28.83;10.60;;;;;;;;;;5037547;28;20874;-49
2021/12/26 06:50:18;;;;;;;24.70;11.93;;;;;;;;;;5039305;28;20997;-48
2021/12/26 06:52:44;;;;;;;18.80;9.80;;;;;;;;;;5040563;28;20442;-49
2021/12/26 06:55:14;;;;;;;22.73;11.37;;;;;;;;;;5016133;28;20472;-50
2021/12/26 06:57:40;;;;;;;20.43;11.30;;;;;;;;;;5041119;28;20434;-50
2021/12/26 07:00:07;;;;;;;18.63;12.67;;;;;;;;;;5022298;28;21033;-49
2021/12/26 07:02:33;;;;;;;25.20;12.40;;;;;;;;;;5038383;28;20470;-49
2021/12/26 07:04:59;;;;;;;17.20;10.70;;;;;;;;;;5035242;28;20443;-48
2021/12/26 07:07:25;;;;;;;19.93;10.80;;;;;;;;;;5041584;28;20508;-47
2021/12/26 07:09:52;;;;;;;24.77;11.83;;;;;;;;;;5041212;28;20925;-50
2021/12/26 07:12:18;;;;;;;20.77;9.93;;;;;;;;;;5046558;28;20442;-49
2021/12/26 07:14:44;;;;;;;19.40;10.57;;;;;;;;;;5020326;28;20435;-48
2021/12/26 07:17:10;;;;;;;21.20;11.43;;;;;;;;;;5030905;28;20467;-49
2021/12/26 07:22:22;;;;;;;16.90;11.30;;;;;;;;;;5037178;28;20562;-50
2021/12/26 07:24:48;;;;;;;31.03;12.80;;;;;;;;;;5036482;28;20430;-48
2021/12/26 07:27:15;;;;;;;24.80;12.97;;;;;;;;;;5041346;28;20434;-50
2021/12/26 07:29:41;;;;;;;27.87;11.80;;;;;;;;;;4998739;28;21504;-47
2021/12/26 07:32:07;;;;;;;24.60;13.13;;;;;;;;;;5026225;28;20573;-48
2021/12/26 07:34:33;;;;;;;23.30;12.10;;;;;;;;;;5040023;28;20818;-48
2021/12/26 07:37:00;;;;;;;18.97;10.73;;;;;;;;;;5032833;28;20458;-50
2021/12/26 07:39:26;;;;;;;24.80;11.73;;;;;;;;;;5019630;28;20442;-48
2021/12/26 07:41:55;;;;;;;22.97;11.67;;;;;;;;;;5038647;28;20564;-50
2021/12/26 07:44:21;;;;;;;18.70;10.90;;;;;;;;;;5028217;28;20514;-48
2021/12/26 07:46:49;;;;;;;19.03;12.03;;;;;;;;;;4994818;28;21169;-48
2021/12/26 07:49:15;;;;;;;21.60;11.43;;;;;;;;;;5041280;28;20972;-49
2021/12/26 07:51:41;;;;;;;20.20;11.00;;;;;;;;;;5007644;28;20786;-48
2021/12/26 07:54:07;;;;;;;17.17;11.00;;;;;;;;;;5038940;28;20999;-48
2021/12/26 07:56:33;;;;;;;20.47;10.70;;;;;;;;;;5025796;28;21480;-49
2021/12/26 07:58:59;;;;;;;21.50;11.30;;;;;;;;;;5032437;28;20427;-50
2021/12/26 08:01:33;;;;;;;22.23;10.83;;;;;;;;;;5013037;28;20489;-49
2021/12/26 08:04:01;;;;;;;18.47;11.03;;;;;;;;;;5033289;28;20433;-48
2021/12/26 08:06:28;;;;;;;21.70;11.87;;;;;;;;;;5034584;28;20450;-48
2021/12/26 08:08:54;;;;;;;21.20;10.23;;;;;;;;;;5040774;28;20431;-49
2021/12/26 08:11:20;;;;;;;20.13;12.93;;;;;;;;;;5016656;28;21600;-48
2021/12/26 08:13:48;;;;;;;20.57;11.60;;;;;;;;;;5018363;28;20804;-50
2021/12/26 08:16:14;;;;;;;19.07;11.70;;;;;;;;;;5019875;28;20758;-48
2021/12/26 08:18:41;;;;;;;23.60;12.20;;;;;;;;;;5013934;28;20838;-49
2021/12/26 08:21:07;;;;;;;18.17;10.60;;;;;;;;;;5021974;28;20478;-51
2021/12/26 08:23:33;;;;;;;22.23;11.37;;;;;;;;;;5040930;28;20462;-47
2021/12/26 08:25:59;;;;;;;20.30;12.07;;;;;;;;;;5039800;28;20446;-48
2021/12/26 08:28:25;;;;;;;22.63;13.83;;;;;;;;;;5037234;28;20465;-50
2021/12/26 08:30:52;;;;;;;21.13;12.57;;;;;;;;;;5017544;28;20528;-50
2021/12/26 08:36:18;;;;;;;21.07;12.10;;;;;;;;;;5012675;28;20473;-50
2021/12/26 08:38:44;;;;;;;17.20;11.23;;;;;;;;;;5040143;28;20904;-49
2021/12/26 08:41:11;;;;;;;23.57;13.67;;;;;;;;;;5018129;28;20534;-49
2021/12/26 08:43:37;;;;;;;22.20;12.93;;;;;;;;;;5043720;28;20512;-49
2021/12/26 08:46:03;;;;;;;22.80;12.00;;;;;;;;;;5035437;28;20801;-49
2021/12/26 08:48:30;;;;;;;24.03;13.10;;;;;;;;;;5045237;28;20450;-49
2021/12/26 08:51:16;;;;;;;23.37;12.40;;;;;;;;;;5015767;28;20461;-51
2021/12/26 08:53:43;;;;;;;26.63;13.77;;;;;;;;;;5036705;28;20450;-49
2021/12/26 08:56:09;;;;;;;23.17;11.93;;;;;;;;;;5036872;28;20435;-50
2021/12/26 08:58:35;;;;;;;25.40;12.33;;;;;;;;;;5054505;28;20435;-48
2021/12/26 09:04:11;;;;;;;16.03;11.20;;;;;;;;;;5039317;28;20503;-50
2021/12/26 09:09:48;;;;;;;19.87;11.90;;;;;;;;;;5014736;28;20441;-50
2021/12/26 09:12:15;;;;;;;23.77;13.50;;;;;;;;;;5011546;28;20474;-49
2021/12/26 09:14:41;;;;;;;21.10;11.27;;;;;;;;;;5022717;28;20510;-49
2021/12/26 09:17:07;;;;;;;18.97;11.70;;;;;;;;;;4994888;28;20685;-50
2021/12/26 09:19:34;;;;;;;22.30;12.40;;;;;;;;;;5028799;28;20484;-50
2021/12/26 09:22:00;;;;;;;21.97;12.73;;;;;;;;;;5009882;28;20924;-49
2021/12/26 09:24:36;;;;;;;19.27;12.37;;;;;;;;;;5035863;28;21706;-51
2021/12/26 09:27:08;;;;;;;16.63;11.50;;;;;;;;;;5010991;28;20553;-50
2021/12/26 09:29:37;;;;;;;19.90;12.80;;;;;;;;;;5036776;28;20580;-50
2021/12/26 09:32:04;;;;;;;20.17;10.60;;;;;;;;;;5041254;28;20871;-50
2021/12/26 09:34:32;;;;;;;18.10;10.40;;;;;;;;;;5046186;28;20551;-49
2021/12/26 09:36:58;;;;;;;13.33;9.53;;;;;;;;;;5037438;28;20428;-51
2021/12/26 09:39:24;;;;;;;15.60;10.00;;;;;;;;;;5012572;28;20472;-51
2021/12/26 09:41:50;;;;;;;12.07;7.53;;;;;;;;;;5040057;28;20986;-49
2021/12/26 09:44:17;;;;;;;9.57;7.00;;;;;;;;;;5002031;28;20445;-51
2021/12/26 09:46:43;;;;;;;13.60;9.00;;;;;;;;;;5043347;28;20550;-49
2021/12/26 09:49:09;;;;;;;12.90;8.63;;;;;;;;;;5023726;28;20595;-49
2021/12/26 09:51:36;;;;;;;14.63;9.10;;;;;;;;;;5039489;28;20494;-50
2021/12/26 09:54:03;;;;;;;10.50;7.63;;;;;;;;;;5033325;28;20476;-49
2021/12/26 09:56:48;;;;;;;12.53;8.87;;;;;;;;;;5043360;28;21266;-50
2021/12/26 09:59:19;;;;;;;9.30;6.70;;;;;;;;;;5015838;28;20482;-50
2021/12/26 10:01:46;;;;;;;12.60;8.50;;;;;;;;;;5024872;28;20926;-49
2021/12/26 10:04:22;;;;;;;13.33;8.17;;;;;;;;;;5020603;28;20878;-49
2021/12/26 10:06:51;;;;;;;12.17;8.97;;;;;;;;;;5044472;28;20990;-49
2021/12/26 10:09:20;;;;;;;10.63;7.83;;;;;;;;;;5037500;28;20438;-49
2021/12/26 10:11:51;;;;;;;10.63;7.40;;;;;;;;;;5011725;28;20652;-51
2021/12/26 10:14:18;;;;;;;10.17;8.03;;;;;;;;;;5016989;28;20520;-49
2021/12/26 10:16:51;;;;;;;13.00;7.83;;;;;;;;;;5035689;28;21339;-51
2021/12/26 10:19:17;;;;;;;9.63;7.33;;;;;;;;;;5032717;28;20465;-50
2021/12/26 10:22:12;;;;;;;9.40;6.87;;;;;;;;;;5038289;28;20543;-51
2021/12/26 10:24:42;;;;;;;10.37;7.30;;;;;;;;;;5041606;28;20456;-51
2021/12/26 10:27:31;;;;;;;10.90;7.50;;;;;;;;;;5022293;28;21019;-50
2021/12/26 10:29:58;;;;;;;9.87;8.00;;;;;;;;;;5039878;28;20451;-50
2021/12/26 10:32:34;;;;;;;11.17;8.20;;;;;;;;;;5019260;28;20545;-51
2021/12/26 10:35:28;;;;;;;10.07;6.57;;;;;;;;;;5040796;28;21192;-50
2021/12/26 10:38:27;;;;;;;7.87;6.37;;;;;;;;;;5016959;28;20450;-50
2021/12/26 10:41:42;;;;;;;10.80;8.00;;;;;;;;;;5011261;28;20988;-51
2021/12/26 10:44:37;;;;;;;9.33;7.17;;;;;;;;;;5022437;28;20513;-50
2021/12/26 10:47:14;;;;;;;9.03;7.93;;;;;;;;;;5011889;28;20566;-50
2021/12/26 10:49:44;;;;;;;10.87;7.07;;;;;;;;;;5033339;28;20427;-51
2021/12/26 10:52:21;;;;;;;11.17;7.67;;;;;;;;;;5003906;28;20452;-50
2021/12/26 10:54:58;;;;;;;10.10;7.33;;;;;;;;;;5033472;28;20433;-50
2021/12/26 10:57:37;;;;;;;9.30;7.50;;;;;;;;;;4999376;28;20458;-50
2021/12/26 11:00:10;;;;;;;11.37;7.83;;;;;;;;;;5028105;28;21143;-49
2021/12/26 11:02:37;;;;;;;10.40;8.30;;;;;;;;;;5007378;28;20533;-51
2021/12/26 11:05:06;;;;;;;11.60;7.83;;;;;;;;;;5024948;28;20598;-50
2021/12/26 11:07:40;;;;;;;10.37;7.80;;;;;;;;;;5024798;28;20523;-49
2021/12/26 11:10:08;;;;;;;11.10;8.37;;;;;;;;;;5031221;28;21055;-49
2021/12/26 11:12:44;;;;;;;10.90;8.10;;;;;;;;;;5021177;28;20458;-51
2021/12/26 11:15:48;;;;;;;9.93;7.67;;;;;;;;;;5026572;28;20787;-50
2021/12/26 11:18:29;;;;;;;12.33;8.33;;;;;;;;;;5017983;28;20458;-51
2021/12/26 11:21:00;;;;;;;11.53;8.03;;;;;;;;;;5006395;28;21488;-50
2021/12/26 11:23:43;;;;;;;12.60;8.43;;;;;;;;;;5027133;28;20528;-51
2021/12/26 11:26:25;;;;;;;12.53;8.33;;;;;;;;;;5003650;28;20537;-51
2021/12/26 11:29:02;;;;;;;10.37;8.00;;;;;;;;;;5029789;28;21003;-50
2021/12/26 11:31:57;;;;;;;10.10;6.43;;;;;;;;;;4995275;28;20510;-51
2021/12/26 11:34:28;;;;;;;13.30;7.43;;;;;;;;;;5021862;28;20469;-50
2021/12/26 11:37:10;;;;;;;9.13;7.50;;;;;;;;;;5014187;28;20446;-50
2021/12/26 11:39:42;;;;;;;8.80;6.57;;;;;;;;;;5025129;28;20446;-48
2021/12/26 11:42:30;;;;;;;7.60;6.70;;;;;;;;;;5030313;28;20552;-50
2021/12/26 11:45:11;;;;;;;8.30;5.80;;;;;;;;;;5031585;28;20438;-50
2021/12/26 11:48:10;;;;;;;9.07;8.10;;;;;;;;;;5015679;28;20445;-48
2021/12/26 11:50:55;;;;;;;8.50;6.03;;;;;;;;;;5036604;28;20486;-50
2021/12/26 11:53:27;;;;;;;9.60;7.17;;;;;;;;;;5028906;28;20772;-49
2021/12/26 11:56:04;;;;;;;8.90;6.40;;;;;;;;;;5053756;28;20434;-50
2021/12/26 11:58:33;;;;;;;11.90;8.30;;;;;;;;;;5030770;28;20504;-50
2021/12/26 12:01:01;;;;;;;9.33;6.60;;;;;;;;;;5034622;28;20435;-48
2021/12/26 12:03:54;;;;;;;12.93;8.07;;;;;;;;;;5007971;28;20465;-50
2021/12/26 12:06:58;;;;;;;7.80;5.80;;;;;;;;;;5037778;28;20431;-52
2021/12/26 12:09:42;;;;;;;7.80;6.63;;;;;;;;;;5028654;28;20485;-50
2021/12/26 12:12:18;;;;;;;8.87;6.73;;;;;;;;;;5024523;28;20541;-49
2021/12/26 12:14:58;;;;;;;11.57;7.30;;;;;;;;;;5038518;28;20533;-49
2021/12/26 12:17:29;;;;;;;7.20;6.50;;;;;;;;;;5015755;28;20541;-50
2021/12/26 12:23:08;;;;;;;9.90;7.10;;;;;;;;;;5014764;28;20523;-51
2021/12/26 12:25:52;;;;;;;12.07;8.07;;;;;;;;;;5025616;28;20453;-50
2021/12/26 12:28:27;;;;;;;11.07;8.20;;;;;;;;;;5030146;28;20447;-50
2021/12/26 12:30:57;;;;;;;9.17;7.50;;;;;;;;;;5008952;28;21013;-49
2021/12/26 12:33:31;;;;;;;8.70;7.30;;;;;;;;;;5036629;28;20457;-50
2021/12/26 12:36:24;;;;;;;10.90;8.40;;;;;;;;;;5029216;28;20984;-49
2021/12/26 12:38:50;;;;;;;8.80;7.67;;;;;;;;;;5037414;28;20741;-48
2021/12/26 12:41:32;;;;;;;10.30;8.33;;;;;;;;;;5010957;28;20743;-48
2021/12/26 12:44:01;;;;;;;9.03;7.20;;;;;;;;;;5036365;28;20445;-49
2021/12/26 12:46:27;;;;;;;11.00;9.00;;;;;;;;;;5038469;28;20446;-50
2021/12/26 12:49:06;;;;;;;9.97;7.40;;;;;;;;;;5042695;28;20449;-51
2021/12/26 12:51:37;;;;;;;9.10;6.73;;;;;;;;;;5001132;28;20442;-50
2021/12/26 12:54:23;;;;;;;8.03;6.43;;;;;;;;;;5041436;28;20436;-49
2021/12/26 12:56:53;;;;;;;10.40;7.60;;;;;;;;;;5024416;28;21289;-50
2021/12/26 12:59:20;;;;;;;9.50;7.20;;;;;;;;;;5058182;28;20441;-50
2021/12/26 13:01:46;;;;;;;8.70;7.23;;;;;;;;;;5033198;28;20532;-50
2021/12/26 13:04:17;;;;;;;8.70;7.07;;;;;;;;;;5037165;28;20957;-51
2021/12/26 13:06:54;;;;;;;7.00;5.97;;;;;;;;;;5043426;28;20767;-50
2021/12/26 13:09:20;;;;;;;7.63;6.57;;;;;;;;;;5039542;28;20576;-50
2021/12/26 13:11:47;;;;;;;10.20;6.73;;;;;;;;;;5013676;28;20450;-49
2021/12/26 13:14:14;;;;;;;10.53;6.70;;;;;;;;;;5036641;28;20447;-50
2021/12/26 13:17:08;;;;;;;8.60;6.87;;;;;;;;;;5021262;28;20495;-49
2021/12/26 13:19:42;;;;;;;9.30;7.30;;;;;;;;;;5034729;28;21069;-49
2021/12/26 13:25:14;;;;;;;9.50;7.80;;;;;;;;;;5033709;28;20436;-49
2021/12/26 13:27:48;;;;;;;10.60;7.40;;;;;;;;;;5036962;28;21043;-51
2021/12/26 13:30:15;;;;;;;8.60;7.47;;;;;;;;;;5043569;28;20780;-50
2021/12/26 13:32:41;;;;;;;9.90;7.60;;;;;;;;;;5036863;28;20479;-54
2021/12/26 13:35:08;;;;;;;8.10;6.30;;;;;;;;;;5042454;28;20493;-50
2021/12/26 13:37:34;;;;;;;7.80;6.93;;;;;;;;;;5041421;28;20872;-50
2021/12/26 13:40:00;;;;;;;7.73;6.30;;;;;;;;;;5044945;28;20625;-49
2021/12/26 13:42:26;;;;;;;8.83;7.93;;;;;;;;;;5015375;28;20578;-49
2021/12/26 13:44:53;;;;;;;8.50;7.13;;;;;;;;;;5040766;28;20431;-51
2021/12/26 13:47:31;;;;;;;9.00;5.80;;;;;;;;;;5040368;28;20541;-51
2021/12/26 13:50:09;;;;;;;8.77;7.20;;;;;;;;;;5044142;28;20481;-51
2021/12/26 13:52:54;;;;;;;9.33;7.60;;;;;;;;;;5024356;28;20447;-49
2021/12/26 13:55:24;;;;;;;10.50;7.33;;;;;;;;;;5025565;28;20474;-51
2021/12/26 14:00:55;;;;;;;7.93;7.10;;;;;;;;;;5036277;28;20831;-50
2021/12/26 14:03:21;;;;;;;7.73;6.90;;;;;;;;;;5016558;28;20483;-50
2021/12/26 14:05:48;;;;;;;17.10;9.83;;;;;;;;;;5037841;28;20438;-50
2021/12/26 14:08:24;;;;;;;10.50;7.50;;;;;;;;;;5026952;28;20446;-49
2021/12/26 14:10:56;;;;;;;12.03;8.67;;;;;;;;;;5045891;28;20525;-49
2021/12/26 14:13:58;;;;;;;8.43;7.53;;;;;;;;;;5013751;28;21246;-50
2021/12/26 14:16:28;;;;;;;10.77;7.03;;;;;;;;;;5044865;28;20426;-48
2021/12/26 14:18:54;;;;;;;10.07;7.97;;;;;;;;;;5044352;28;20786;-49
2021/12/26 14:21:21;;;;;;;9.13;6.90;;;;;;;;;;5053684;28;20430;-52
2021/12/26 14:24:19;;;;;;;10.27;7.67;;;;;;;;;;5032265;28;20440;-50
2021/12/26 14:26:46;;;;;;;11.93;7.40;;;;;;;;;;5018644;28;20434;-49
2021/12/26 14:29:14;;;;;;;8.43;7.53;;;;;;;;;;5020198;28;20442;-49
2021/12/26 14:31:46;;;;;;;10.07;7.30;;;;;;;;;;5048440;28;20442;-52
2021/12/26 14:34:14;;;;;;;8.63;7.00;;;;;;;;;;5023339;28;20458;-49
2021/12/26 14:36:45;;;;;;;9.50;8.23;;;;;;;;;;5041032;28;20502;-50
2021/12/26 14:39:11;;;;;;;8.70;7.40;;;;;;;;;;5038193;28;20459;-49
2021/12/26 14:41:44;;;;;;;9.07;7.70;;;;;;;;;;5050088;28;20889;-49
2021/12/26 14:44:20;;;;;;;9.47;7.67;;;;;;;;;;5022869;28;20486;-50
2021/12/26 14:46:47;;;;;;;9.30;8.03;;;;;;;;;;5049196;28;20441;-51
2021/12/26 14:49:14;;;;;;;9.83;8.10;;;;;;;;;;5028545;28;22818;-51
2021/12/26 14:51:43;;;;;;;9.73;8.73;;;;;;;;;;5044059;28;20803;-51
2021/12/26 14:54:11;;;;;;;9.67;8.60;;;;;;;;;;5036259;28;20533;-51
2021/12/26 14:56:50;;;;;;;9.70;7.20;;;;;;;;;;5047252;28;20437;-51
2021/12/26 14:59:30;;;;;;;11.00;7.30;;;;;;;;;;5009631;28;20966;-50
2021/12/26 15:02:04;;;;;;;9.90;7.67;;;;;;;;;;5056509;28;20479;-50
2021/12/26 15:04:30;;;;;;;10.90;7.90;;;;;;;;;;5016224;28;21178;-49
2021/12/26 15:07:21;;;;;;;8.33;7.47;;;;;;;;;;5041256;28;21120;-49
2021/12/26 15:09:55;;;;;;;10.63;7.83;;;;;;;;;;5045551;28;20434;-50